createdAt,value
2017-12-01T00:01:03.173Z,0
2017-12-01T00:03:04.588Z,0
2017-12-01T00:05:06.587Z,0
2017-12-01T00:07:08.900Z,0
2017-12-01T00:09:50.930Z,0
2017-12-01T00:12:34.228Z,0
2017-12-01T00:14:37.008Z,0
2017-12-01T00:16:38.564Z,0
2017-12-01T00:18:40.327Z,0
2017-12-01T00:20:42.069Z,0
2017-12-01T00:22:43.824Z,0
2017-12-01T00:24:45.535Z,0
2017-12-01T00:27:30.638Z,0
2017-12-01T00:29:32.863Z,0
2017-12-01T00:31:34.462Z,0
2017-12-01T00:33:36.271Z,0
2017-12-01T00:35:38.095Z,0
2017-12-01T00:37:39.703Z,0
2017-12-01T00:39:41.200Z,0
2017-12-01T00:42:23.507Z,0
2017-12-01T00:44:25.551Z,0
2017-12-01T00:46:28.259Z,0
2017-12-01T00:48:30.334Z,0
2017-12-01T00:50:32.004Z,0
2017-12-01T00:52:33.808Z,0
2017-12-01T00:54:35.599Z,0
2017-12-01T00:56:37.624Z,0
2017-12-01T00:59:21.400Z,0
2017-12-01T01:01:23.401Z,0
2017-12-01T01:03:26.961Z,0
2017-12-01T01:05:28.700Z,0
2017-12-01T01:07:30.914Z,0
2017-12-01T01:09:32.535Z,0
2017-12-01T01:11:34.319Z,0
2017-12-01T01:14:18.080Z,0
2017-12-01T01:16:20.589Z,0
2017-12-01T01:18:22.165Z,0
2017-12-01T01:20:23.866Z,0
2017-12-01T01:22:25.663Z,0
2017-12-01T01:24:27.547Z,0
2017-12-01T01:26:29.386Z,0
2017-12-01T01:28:31.280Z,0
2017-12-01T01:30:32.796Z,0
2017-12-01T01:32:34.360Z,0
2017-12-01T01:34:36.190Z,0
2017-12-01T01:36:37.985Z,0
2017-12-01T01:38:39.825Z,0
2017-12-01T01:40:41.664Z,0
2017-12-01T01:42:43.487Z,0
2017-12-01T01:44:45.297Z,0
2017-12-01T01:46:47.151Z,0
2017-12-01T01:48:48.973Z,0
2017-12-01T01:50:50.800Z,0
2017-12-01T01:52:52.459Z,0
2017-12-01T01:54:53.977Z,0
2017-12-01T01:56:55.470Z,0
2017-12-01T01:58:57.001Z,0
2017-12-01T02:00:58.506Z,0
2017-12-01T02:03:00.525Z,0
2017-12-01T02:05:02.191Z,0
2017-12-01T02:07:03.920Z,0
2017-12-01T02:09:05.542Z,0
2017-12-01T02:11:07.376Z,0
2017-12-01T02:13:09.224Z,0
2017-12-01T02:15:11.044Z,0
2017-12-01T02:17:12.687Z,0
2017-12-01T02:19:14.470Z,0
2017-12-01T02:21:16.086Z,0
2017-12-01T02:23:17.907Z,0
2017-12-01T02:25:19.776Z,0
2017-12-01T02:27:21.502Z,0
2017-12-01T02:29:23.269Z,0
2017-12-01T02:31:25.228Z,0
2017-12-01T02:33:27.111Z,0
2017-12-01T02:35:28.838Z,0
2017-12-01T02:38:12.523Z,0
2017-12-01T02:40:14.492Z,0
2017-12-01T02:42:17.166Z,0
2017-12-01T02:44:18.709Z,0
2017-12-01T02:46:20.359Z,0
2017-12-01T02:48:22.159Z,0
2017-12-01T02:50:23.740Z,0
2017-12-01T02:53:07.697Z,0
2017-12-01T02:55:10.607Z,0
2017-12-01T02:57:12.106Z,0
2017-12-01T02:59:13.701Z,0
2017-12-01T03:01:15.180Z,0
2017-12-01T03:03:16.657Z,0
2017-12-01T03:06:00.356Z,0
2017-12-01T03:08:02.633Z,0
2017-12-01T03:10:04.308Z,0
2017-12-01T03:12:05.964Z,0
2017-12-01T03:14:07.762Z,0
2017-12-01T03:16:09.537Z,0
2017-12-01T03:18:11.041Z,0
2017-12-01T03:20:12.735Z,0
2017-12-01T03:22:56.008Z,0
2017-12-01T03:25:00.210Z,0
2017-12-01T03:27:01.639Z,0
2017-12-01T03:29:03.256Z,0
2017-12-01T03:31:05.033Z,0
2017-12-01T03:33:07.045Z,0
2017-12-01T03:35:08.585Z,0
2017-12-01T03:37:52.103Z,0
2017-12-01T03:39:54.704Z,0
2017-12-01T03:41:56.385Z,0
2017-12-01T03:43:58.157Z,0
2017-12-01T03:45:59.818Z,0
2017-12-01T03:48:01.633Z,0
2017-12-01T03:50:03.430Z,0
2017-12-01T03:52:04.970Z,0
2017-12-01T03:54:46.970Z,0
2017-12-01T03:56:49.283Z,0
2017-12-01T03:58:50.696Z,0
2017-12-01T04:00:52.258Z,0
2017-12-01T04:02:53.799Z,0
2017-12-01T04:04:55.325Z,0
2017-12-01T04:06:57.128Z,0
2017-12-01T04:09:43.350Z,0
2017-12-01T04:11:44.575Z,0
2017-12-01T04:13:46.081Z,0
2017-12-01T04:15:47.579Z,0
2017-12-01T04:17:49.317Z,0
2017-12-01T04:19:51.124Z,0
2017-12-01T04:21:52.825Z,0
2017-12-01T04:23:54.620Z,0
2017-12-01T04:26:37.826Z,0
2017-12-01T04:28:39.722Z,0
2017-12-01T04:30:41.853Z,0
2017-12-01T04:32:43.528Z,0
2017-12-01T04:34:45.269Z,0
2017-12-01T04:36:47.266Z,0
2017-12-01T04:38:48.917Z,0
2017-12-01T04:41:32.035Z,0
2017-12-01T04:43:35.241Z,0
2017-12-01T04:45:36.777Z,0
2017-12-01T04:47:38.571Z,0
2017-12-01T04:49:40.334Z,0
2017-12-01T04:51:42.047Z,0
2017-12-01T04:53:43.831Z,0
2017-12-01T04:55:45.702Z,0
2017-12-01T04:57:47.486Z,0
2017-12-01T04:59:49.262Z,0
2017-12-01T05:01:51.138Z,0
2017-12-01T05:03:53.177Z,0
2017-12-01T05:05:54.904Z,0
2017-12-01T05:07:56.765Z,0
2017-12-01T05:09:58.547Z,0
2017-12-01T05:12:00.274Z,0
2017-12-01T05:14:02.123Z,0
2017-12-01T05:16:03.952Z,0
2017-12-01T05:18:05.821Z,0
2017-12-01T05:20:07.325Z,0
2017-12-01T05:22:14.380Z,0
2017-12-01T05:24:14.116Z,0
2017-12-01T05:26:15.587Z,0
2017-12-01T05:28:17.504Z,0
2017-12-01T05:30:21.055Z,0
2017-12-01T05:32:22.748Z,0
2017-12-01T05:34:24.541Z,0
2017-12-01T05:36:26.404Z,0
2017-12-01T05:38:28.218Z,0
2017-12-01T05:40:29.806Z,0
2017-12-01T05:42:31.659Z,0
2017-12-01T05:44:33.376Z,0
2017-12-01T05:46:35.167Z,0
2017-12-01T05:48:37.145Z,0
2017-12-01T05:50:38.827Z,0
2017-12-01T05:52:40.420Z,0
2017-12-01T05:54:42.308Z,0
2017-12-01T05:56:44.099Z,0
2017-12-01T05:58:45.923Z,0
2017-12-01T06:01:31.371Z,0
2017-12-01T06:03:33.900Z,0
2017-12-01T06:05:35.504Z,0
2017-12-01T06:08:19.234Z,0
2017-12-01T06:10:23.445Z,0
2017-12-01T06:12:25.003Z,0
2017-12-01T06:14:26.480Z,0
2017-12-01T06:16:28.025Z,0
2017-12-01T06:18:29.523Z,0
2017-12-01T06:20:31.123Z,0
2017-12-01T06:22:32.871Z,0
2017-12-01T06:24:34.459Z,0
2017-12-01T06:26:35.927Z,0
2017-12-01T06:28:37.368Z,0
2017-12-01T06:30:38.954Z,0
2017-12-01T06:33:20.353Z,0
2017-12-01T06:35:23.352Z,0
2017-12-01T06:37:25.909Z,0
2017-12-01T06:39:27.404Z,0
2017-12-01T06:41:29.000Z,0
2017-12-01T06:43:30.500Z,0
2017-12-01T06:45:31.917Z,0
2017-12-01T06:47:33.439Z,0
2017-12-01T06:50:15.901Z,0
2017-12-01T06:52:17.394Z,0
2017-12-01T06:54:19.052Z,0
2017-12-01T06:56:20.854Z,0
2017-12-01T06:58:22.546Z,0
2017-12-01T07:00:24.100Z,0
2017-12-01T07:02:25.821Z,0
2017-12-01T07:05:11.425Z,0
2017-12-01T07:07:12.874Z,0
2017-12-01T07:09:15.961Z,0
2017-12-01T07:11:17.709Z,0
2017-12-01T07:13:20.668Z,0
2017-12-01T07:15:23.299Z,0
2017-12-01T07:17:26.354Z,0
2017-12-01T07:19:29.243Z,0
2017-12-01T07:21:30.933Z,0
2017-12-01T07:23:32.567Z,0
2017-12-01T07:25:33.992Z,0
2017-12-01T07:27:36.047Z,0
2017-12-01T07:29:38.597Z,0
2017-12-01T07:31:40.125Z,0
2017-12-01T07:33:41.651Z,0
2017-12-01T07:35:44.496Z,0
2017-12-01T07:37:46.019Z,0
2017-12-01T07:39:47.657Z,0
2017-12-01T07:41:49.926Z,0
2017-12-01T07:43:51.649Z,0
2017-12-01T07:45:53.142Z,0
2017-12-01T07:47:54.750Z,0
2017-12-01T07:49:56.441Z,0
2017-12-01T07:51:57.920Z,0
2017-12-01T07:53:59.414Z,0
2017-12-01T07:56:00.956Z,0
2017-12-01T07:58:02.427Z,0
2017-12-01T08:00:04.005Z,0
2017-12-01T08:02:05.641Z,0
2017-12-01T08:04:07.358Z,0
2017-12-01T08:06:08.973Z,0
2017-12-01T08:08:10.711Z,0
2017-12-01T08:10:12.503Z,0
2017-12-01T08:12:14.185Z,0
2017-12-01T08:14:16.571Z,0
2017-12-01T08:16:18.050Z,0
2017-12-01T08:18:19.659Z,0
2017-12-01T08:20:21.139Z,0
2017-12-01T08:22:22.863Z,0
2017-12-01T08:24:24.310Z,5
2017-12-01T08:26:25.973Z,5
2017-12-01T08:28:27.464Z,5
2017-12-01T08:30:29.125Z,5
2017-12-01T08:32:31.746Z,5
2017-12-01T08:34:33.728Z,10
2017-12-01T08:36:35.420Z,10
2017-12-01T08:38:37.251Z,15
2017-12-01T08:40:38.950Z,10
2017-12-01T08:42:40.633Z,5
2017-12-01T08:44:42.490Z,5
2017-12-01T08:46:44.006Z,5
2017-12-01T08:48:46.071Z,10
2017-12-01T08:50:47.522Z,5
2017-12-01T08:52:49.147Z,5
2017-12-01T08:54:50.895Z,10
2017-12-01T08:57:33.378Z,15
2017-12-01T08:59:34.784Z,10
2017-12-01T09:01:36.273Z,5
2017-12-01T09:03:37.675Z,10
2017-12-01T09:05:39.114Z,10
2017-12-01T09:08:21.551Z,10
2017-12-01T09:10:22.961Z,15
2017-12-01T09:12:24.592Z,15
2017-12-01T09:14:26.076Z,20
2017-12-01T09:16:27.487Z,20
2017-12-01T09:18:29.127Z,20
2017-12-01T09:20:31.728Z,20
2017-12-01T09:22:33.223Z,20
2017-12-01T09:24:34.771Z,20
2017-12-01T09:26:36.195Z,20
2017-12-01T09:28:37.803Z,20
2017-12-01T09:30:39.520Z,20
2017-12-01T09:32:41.593Z,20
2017-12-01T09:34:43.130Z,15
2017-12-01T09:36:44.787Z,15
2017-12-01T09:38:46.273Z,20
2017-12-01T09:40:47.805Z,15
2017-12-01T09:42:49.321Z,15
2017-12-01T09:44:51.038Z,15
2017-12-01T09:46:53.447Z,10
2017-12-01T09:48:54.930Z,15
2017-12-01T09:50:56.448Z,15
2017-12-01T09:52:57.983Z,20
2017-12-01T09:54:59.490Z,15
2017-12-01T09:57:01.131Z,15
2017-12-01T09:59:02.886Z,10
2017-12-01T10:01:04.439Z,15
2017-12-01T10:03:05.959Z,15
2017-12-01T10:05:07.441Z,10
2017-12-01T10:07:09.310Z,10
2017-12-01T10:09:10.818Z,5
2017-12-01T10:11:12.364Z,5
2017-12-01T10:13:13.832Z,10
2017-12-01T10:15:15.334Z,10
2017-12-01T10:17:17.069Z,10
2017-12-01T10:19:18.524Z,10
2017-12-01T10:21:20.019Z,10
2017-12-01T10:23:21.464Z,10
2017-12-01T10:25:22.943Z,15
2017-12-01T10:27:24.453Z,10
2017-12-01T10:29:26.207Z,10
2017-12-01T10:31:27.759Z,10
2017-12-01T10:33:29.680Z,10
2017-12-01T10:35:31.683Z,10
2017-12-01T10:37:33.436Z,10
2017-12-01T10:40:16.197Z,10
2017-12-01T10:42:19.584Z,10
2017-12-01T10:44:20.990Z,10
2017-12-01T10:46:22.403Z,10
2017-12-01T10:48:23.816Z,10
2017-12-01T10:50:25.258Z,15
2017-12-01T10:52:26.718Z,15
2017-12-01T10:54:28.225Z,15
2017-12-01T10:56:29.733Z,15
2017-12-01T10:58:31.266Z,10
2017-12-01T11:00:32.758Z,10
2017-12-01T11:03:15.161Z,15
2017-12-01T11:05:16.573Z,25
2017-12-01T11:07:18.026Z,35
2017-12-01T11:09:19.437Z,40
2017-12-01T11:11:20.847Z,50
2017-12-01T11:13:22.270Z,65
2017-12-01T11:15:23.693Z,65
2017-12-01T11:17:25.098Z,60
2017-12-01T11:19:26.510Z,55
2017-12-01T11:21:27.917Z,55
2017-12-01T11:23:30.912Z,60
2017-12-01T11:25:32.385Z,50
2017-12-01T11:27:33.799Z,45
2017-12-01T11:29:35.289Z,35
2017-12-01T11:31:36.727Z,40
2017-12-01T11:33:38.449Z,35
2017-12-01T11:35:40.205Z,35
2017-12-01T11:37:41.948Z,35
2017-12-01T11:39:43.723Z,40
2017-12-01T11:41:45.473Z,40
2017-12-01T11:43:47.148Z,45
2017-12-01T11:45:48.683Z,50
2017-12-01T11:47:50.126Z,60
2017-12-01T11:49:51.697Z,65
2017-12-01T11:51:53.217Z,60
2017-12-01T11:53:55.275Z,50
2017-12-01T11:55:57.185Z,55
2017-12-01T11:57:59.493Z,35
2017-12-01T12:00:01.680Z,40
2017-12-01T12:02:03.207Z,45
2017-12-01T12:04:04.743Z,40
2017-12-01T12:06:06.263Z,55
2017-12-01T12:08:07.777Z,65
2017-12-01T12:10:50.159Z,60
2017-12-01T12:12:51.567Z,55
2017-12-01T12:14:52.981Z,40
2017-12-01T12:16:54.424Z,35
2017-12-01T12:18:55.853Z,35
2017-12-01T12:20:57.459Z,35
2017-12-01T12:22:58.871Z,35
2017-12-01T12:25:00.294Z,40
2017-12-01T12:27:01.698Z,40
2017-12-01T12:29:03.154Z,40
2017-12-01T12:31:04.661Z,50
2017-12-01T12:33:06.093Z,45
2017-12-01T12:35:08.152Z,45
2017-12-01T12:37:09.644Z,40
2017-12-01T12:39:53.904Z,40
2017-12-01T12:41:55.554Z,40
2017-12-01T12:43:57.686Z,40
2017-12-01T12:45:59.488Z,40
2017-12-01T12:48:01.060Z,40
2017-12-01T12:50:02.602Z,40
2017-12-01T12:52:04.080Z,40
2017-12-01T12:54:05.838Z,40
2017-12-01T12:56:07.359Z,35
2017-12-01T12:58:08.882Z,35
2017-12-01T13:00:10.727Z,40
2017-12-01T13:02:12.463Z,40
2017-12-01T13:04:14.008Z,40
2017-12-01T13:06:15.646Z,40
2017-12-01T13:08:17.512Z,40
2017-12-01T13:10:19.376Z,40
2017-12-01T13:12:21.283Z,40
2017-12-01T13:14:23.092Z,40
2017-12-01T13:16:24.989Z,40
2017-12-01T13:18:26.697Z,35
2017-12-01T13:20:28.178Z,35
2017-12-01T13:22:30.095Z,30
2017-12-01T13:24:32.007Z,25
2017-12-01T13:26:33.988Z,25
2017-12-01T13:28:35.841Z,25
2017-12-01T13:30:37.649Z,20
2017-12-01T13:32:39.382Z,25
2017-12-01T13:34:41.142Z,20
2017-12-01T13:36:42.625Z,20
2017-12-01T13:38:44.362Z,20
2017-12-01T13:41:26.892Z,20
2017-12-01T13:43:28.292Z,20
2017-12-01T13:45:29.733Z,20
2017-12-01T13:47:31.128Z,20
2017-12-01T13:49:32.530Z,20
2017-12-01T13:51:35.232Z,15
2017-12-01T13:53:36.575Z,15
2017-12-01T13:55:37.997Z,15
2017-12-01T13:57:39.417Z,15
2017-12-01T13:59:40.955Z,15
2017-12-01T14:01:42.591Z,15
2017-12-01T14:03:44.136Z,15
2017-12-01T14:05:45.743Z,15
2017-12-01T14:07:47.326Z,15
2017-12-01T14:09:49.455Z,15
2017-12-01T14:11:51.810Z,15
2017-12-01T14:13:53.340Z,15
2017-12-01T14:15:54.799Z,10
2017-12-01T14:17:56.934Z,10
2017-12-01T14:19:58.658Z,10
2017-12-01T14:22:01.141Z,10
2017-12-01T14:24:03.358Z,10
2017-12-01T14:26:05.196Z,10
2017-12-01T14:28:06.983Z,10
2017-12-01T14:30:08.471Z,10
2017-12-01T14:32:10.021Z,10
2017-12-01T14:34:11.567Z,10
2017-12-01T14:36:13.859Z,10
2017-12-01T14:38:16.204Z,5
2017-12-01T14:40:18.736Z,5
2017-12-01T14:42:20.338Z,5
2017-12-01T14:44:21.871Z,5
2017-12-01T14:46:24.393Z,5
2017-12-01T14:48:25.923Z,5
2017-12-01T14:50:27.472Z,5
2017-12-01T14:52:28.943Z,5
2017-12-01T14:54:31.462Z,0
2017-12-01T14:56:33.165Z,0
2017-12-01T14:58:35.424Z,0
2017-12-01T15:00:36.932Z,0
2017-12-01T15:02:38.445Z,0
2017-12-01T15:04:39.970Z,0
2017-12-01T15:06:42.619Z,0
2017-12-01T15:08:44.507Z,0
2017-12-01T15:10:46.252Z,0
2017-12-01T15:12:47.749Z,0
2017-12-01T15:14:49.306Z,0
2017-12-01T15:16:50.843Z,0
2017-12-01T15:18:54.037Z,0
2017-12-01T15:21:40.504Z,0
2017-12-01T15:23:42.176Z,0
2017-12-01T15:25:43.762Z,0
2017-12-01T15:27:45.392Z,0
2017-12-01T15:29:46.996Z,0
2017-12-01T15:31:48.515Z,0
2017-12-01T15:33:49.972Z,0
2017-12-01T15:35:51.451Z,0
2017-12-01T15:37:52.911Z,0
2017-12-01T15:39:56.333Z,0
2017-12-01T15:41:57.986Z,0
2017-12-01T15:43:59.816Z,0
2017-12-01T15:46:01.334Z,0
2017-12-01T15:48:02.863Z,0
2017-12-01T15:50:05.154Z,0
2017-12-01T15:52:06.865Z,0
2017-12-01T15:54:08.388Z,0
2017-12-01T15:56:11.684Z,0
2017-12-01T15:58:13.409Z,0
2017-12-01T16:00:15.169Z,0
2017-12-01T16:02:17.015Z,0
2017-12-01T16:04:18.680Z,0
2017-12-01T16:06:20.541Z,0
2017-12-01T16:08:23.298Z,0
2017-12-01T16:10:25.000Z,0
2017-12-01T16:12:26.699Z,0
2017-12-01T16:14:29.964Z,0
2017-12-01T16:16:31.491Z,0
2017-12-01T16:18:33.039Z,0
2017-12-01T16:20:34.654Z,0
2017-12-01T16:22:37.552Z,0
2017-12-01T16:24:38.902Z,0
2017-12-01T16:26:40.371Z,0
2017-12-01T16:28:41.934Z,0
2017-12-01T16:30:43.369Z,0
2017-12-01T16:32:51.155Z,0
2017-12-01T16:34:48.316Z,0
2017-12-01T16:36:51.358Z,0
2017-12-01T16:38:54.441Z,0
2017-12-01T16:41:40.662Z,0
2017-12-01T16:43:43.753Z,0
2017-12-01T16:45:45.407Z,0
2017-12-01T16:47:47.363Z,0
2017-12-01T16:49:49.201Z,0
2017-12-01T16:52:31.751Z,0
2017-12-01T16:54:33.165Z,0
2017-12-01T16:56:37.937Z,0
2017-12-01T16:58:40.970Z,0
2017-12-01T17:00:42.438Z,0
2017-12-01T17:02:44.019Z,0
2017-12-01T17:04:47.114Z,0
2017-12-01T17:06:48.682Z,0
2017-12-01T17:08:50.197Z,0
2017-12-01T17:10:51.906Z,0
2017-12-01T17:12:53.645Z,0
2017-12-01T17:14:55.380Z,0
2017-12-01T17:16:57.193Z,0
2017-12-01T17:18:58.670Z,0
2017-12-01T17:21:01.600Z,0
2017-12-01T17:23:03.334Z,0
2017-12-01T17:25:04.859Z,0
2017-12-01T17:27:06.450Z,0
2017-12-01T17:29:08.005Z,0
2017-12-01T17:31:09.528Z,0
2017-12-01T17:33:11.018Z,0
2017-12-01T17:35:12.542Z,0
2017-12-01T17:37:15.099Z,0
2017-12-01T17:39:16.649Z,0
2017-12-01T17:41:18.188Z,0
2017-12-01T17:43:19.745Z,0
2017-12-01T17:45:21.329Z,0
2017-12-01T17:47:23.047Z,0
2017-12-01T17:49:24.665Z,0
2017-12-01T17:51:27.309Z,0
2017-12-01T17:53:28.900Z,0
2017-12-01T17:55:31.581Z,0
2017-12-01T17:57:34.341Z,0
2017-12-01T17:59:36.296Z,0
2017-12-01T18:01:38.094Z,0
2017-12-01T18:03:39.848Z,0
2017-12-01T18:05:41.641Z,0
2017-12-01T18:07:43.088Z,0
2017-12-01T18:09:44.909Z,0
2017-12-01T18:11:46.344Z,0
2017-12-01T18:13:47.865Z,0
2017-12-01T18:15:49.787Z,0
2017-12-01T18:17:51.626Z,0
2017-12-01T18:19:53.362Z,0
2017-12-01T18:21:54.872Z,0
2017-12-01T18:23:56.380Z,0
2017-12-01T18:25:57.923Z,0
2017-12-01T18:27:59.457Z,0
2017-12-01T18:30:00.956Z,0
2017-12-01T18:32:03.691Z,0
2017-12-01T18:34:05.355Z,0
2017-12-01T18:36:07.064Z,0
2017-12-01T18:38:09.127Z,0
2017-12-01T18:40:10.912Z,0
2017-12-01T18:42:12.726Z,0
2017-12-01T18:44:14.258Z,0
2017-12-01T18:46:17.229Z,0
2017-12-01T18:48:19.676Z,0
2017-12-01T18:50:21.473Z,0
2017-12-01T18:52:23.853Z,0
2017-12-01T18:54:25.615Z,0
2017-12-01T18:56:27.480Z,0
2017-12-01T18:58:29.954Z,0
2017-12-01T19:00:31.785Z,0
2017-12-01T19:02:33.470Z,0
2017-12-01T19:04:34.984Z,0
2017-12-01T19:06:36.498Z,0
2017-12-01T19:08:37.994Z,0
2017-12-01T19:10:40.398Z,0
2017-12-01T19:12:42.130Z,0
2017-12-01T19:14:44.687Z,0
2017-12-01T19:16:46.343Z,0
2017-12-01T19:18:48.200Z,0
2017-12-01T19:20:49.969Z,0
2017-12-01T19:22:51.867Z,0
2017-12-01T19:24:54.132Z,0
2017-12-01T19:26:55.862Z,0
2017-12-01T19:28:58.243Z,0
2017-12-01T19:31:45.153Z,0
2017-12-01T19:33:46.563Z,0
2017-12-01T19:35:48.050Z,0
2017-12-01T19:37:49.613Z,0
2017-12-01T19:39:51.082Z,0
2017-12-01T19:41:52.571Z,0
2017-12-01T19:43:54.306Z,0
2017-12-01T19:45:56.706Z,0
2017-12-01T19:47:58.662Z,0
2017-12-01T19:50:00.447Z,0
2017-12-01T19:52:01.963Z,0
2017-12-01T19:54:03.818Z,0
2017-12-01T19:56:05.337Z,0
2017-12-01T19:58:06.812Z,0
2017-12-01T20:00:08.828Z,0
2017-12-01T20:02:10.312Z,0
2017-12-01T20:04:11.820Z,0
2017-12-01T20:06:13.957Z,0
2017-12-01T20:08:16.149Z,0
2017-12-01T20:10:17.900Z,0
2017-12-01T20:12:19.342Z,0
2017-12-01T20:14:21.089Z,0
2017-12-01T20:16:22.788Z,0
2017-12-01T20:18:24.564Z,0
2017-12-01T20:20:26.234Z,0
2017-12-01T20:22:28.009Z,0
2017-12-01T20:24:29.851Z,0
2017-12-01T20:26:31.975Z,0
2017-12-01T20:28:33.557Z,0
2017-12-01T20:30:35.272Z,0
2017-12-01T20:32:37.509Z,0
2017-12-01T20:34:39.039Z,0
2017-12-01T20:36:41.217Z,0
2017-12-01T20:38:42.926Z,0
2017-12-01T20:40:44.874Z,0
2017-12-01T20:42:46.654Z,0
2017-12-01T20:44:48.446Z,0
2017-12-01T20:46:50.064Z,0
2017-12-01T20:48:51.635Z,0
2017-12-01T20:50:53.449Z,0
2017-12-01T20:52:55.252Z,0
2017-12-01T20:54:57.078Z,0
2017-12-01T20:56:59.331Z,0
2017-12-01T20:59:01.036Z,0
2017-12-01T21:01:02.672Z,0
2017-12-01T21:03:04.245Z,0
2017-12-01T21:05:06.265Z,0
2017-12-01T21:07:07.980Z,0
2017-12-01T21:09:09.658Z,0
2017-12-01T21:11:11.928Z,0
2017-12-01T21:13:13.687Z,0
2017-12-01T21:15:15.480Z,0
2017-12-01T21:17:17.335Z,0
2017-12-01T21:19:18.849Z,0
2017-12-01T21:21:20.556Z,0
2017-12-01T21:23:22.394Z,0
2017-12-01T21:25:24.048Z,0
2017-12-01T21:27:26.139Z,0
2017-12-01T21:29:27.705Z,0
2017-12-01T21:31:29.240Z,0
2017-12-01T21:33:30.746Z,0
2017-12-01T21:35:32.344Z,0
2017-12-01T21:37:34.525Z,0
2017-12-01T21:39:36.658Z,0
2017-12-01T21:41:38.390Z,0
2017-12-01T21:43:40.237Z,0
2017-12-01T21:45:41.765Z,0
2017-12-01T21:47:43.557Z,0
2017-12-01T21:49:45.832Z,0
2017-12-01T21:51:48.126Z,0
2017-12-01T21:53:49.894Z,0
2017-12-01T21:55:51.708Z,0
2017-12-01T21:57:53.519Z,0
2017-12-01T21:59:55.128Z,0
2017-12-01T22:01:56.632Z,0
2017-12-01T22:03:58.955Z,0
2017-12-01T22:06:01.249Z,0
2017-12-01T22:08:03.429Z,0
2017-12-01T22:10:05.749Z,0
2017-12-01T22:12:07.467Z,0
2017-12-01T22:14:09.319Z,0
2017-12-01T22:16:11.605Z,0
2017-12-01T22:18:15.240Z,0
2017-12-01T22:20:16.828Z,0
2017-12-01T22:22:19.141Z,0
2017-12-01T22:24:20.884Z,0
2017-12-01T22:26:22.735Z,0
2017-12-01T22:28:25.260Z,0
2017-12-01T22:30:27.351Z,0
2017-12-01T22:32:29.231Z,0
2017-12-01T22:34:31.008Z,0
2017-12-01T22:36:32.640Z,0
2017-12-01T22:38:34.408Z,0
2017-12-01T22:40:35.918Z,0
2017-12-01T22:42:38.302Z,0
2017-12-01T22:44:39.761Z,0
2017-12-01T22:47:26.264Z,0
2017-12-01T22:49:27.888Z,0
2017-12-01T22:51:29.571Z,0
2017-12-01T22:53:31.082Z,0
2017-12-01T22:55:32.842Z,0
2017-12-01T22:57:34.565Z,0
2017-12-01T22:59:36.271Z,0
2017-12-01T23:01:37.882Z,0
2017-12-01T23:03:40.196Z,0
2017-12-01T23:05:41.905Z,0
2017-12-01T23:07:43.740Z,0
2017-12-01T23:09:45.225Z,0
2017-12-01T23:11:46.766Z,0
2017-12-01T23:13:48.342Z,0
2017-12-01T23:15:50.019Z,0
2017-12-01T23:17:52.598Z,0
2017-12-01T23:19:54.186Z,0
2017-12-01T23:21:55.675Z,0
2017-12-01T23:23:57.171Z,0
2017-12-01T23:26:00.264Z,0
2017-12-01T23:28:01.786Z,0
2017-12-01T23:30:03.511Z,0
2017-12-01T23:32:45.239Z,0
2017-12-01T23:34:46.684Z,0
2017-12-01T23:37:29.096Z,0
2017-12-01T23:39:30.498Z,0
2017-12-01T23:41:32.354Z,0
2017-12-01T23:43:33.610Z,0
2017-12-01T23:45:35.020Z,0
2017-12-01T23:47:36.495Z,0
2017-12-01T23:49:37.923Z,0
2017-12-01T23:51:39.440Z,0
2017-12-01T23:53:42.282Z,0
2017-12-01T23:55:44.022Z,0
2017-12-01T23:57:45.604Z,0
2017-12-01T23:59:47.056Z,0
